sensor_id;sensor_type;location;lat;lon;timestamp;temperature;humidity
53880;DHT22;39791;53.184;5.486;2022-10-13T00:00:43;14.80;99.90
53880;DHT22;39791;53.184;5.486;2022-10-13T00:03:09;14.10;99.90
53880;DHT22;39791;53.184;5.486;2022-10-13T00:05:40;14.80;99.90
53880;DHT22;39791;53.184;5.486;2022-10-13T00:08:06;14.30;99.90
53880;DHT22;39791;53.184;5.486;2022-10-13T00:10:35;15.10;99.90
53880;DHT22;39791;53.184;5.486;2022-10-13T00:13:01;14.30;99.90
53880;DHT22;39791;53.184;5.486;2022-10-13T00:15:27;14.00;99.90
53880;DHT22;39791;53.184;5.486;2022-10-13T00:17:52;14.50;99.90
53880;DHT22;39791;53.184;5.486;2022-10-13T00:20:18;14.60;99.90
53880;DHT22;39791;53.184;5.486;2022-10-13T00:22:43;14.40;99.90
53880;DHT22;39791;53.184;5.486;2022-10-13T00:25:09;14.10;99.90
53880;DHT22;39791;53.184;5.486;2022-10-13T00:27:35;14.60;99.90
53880;DHT22;39791;53.184;5.486;2022-10-13T00:30:00;14.20;99.90
53880;DHT22;39791;53.184;5.486;2022-10-13T00:32:26;14.30;99.90
53880;DHT22;39791;53.184;5.486;2022-10-13T00:34:52;14.20;99.90
53880;DHT22;39791;53.184;5.486;2022-10-13T00:37:17;14.10;99.90
53880;DHT22;39791;53.184;5.486;2022-10-13T00:39:43;14.60;99.90
53880;DHT22;39791;53.184;5.486;2022-10-13T00:42:11;15.00;99.90
53880;DHT22;39791;53.184;5.486;2022-10-13T00:48:08;14.40;99.90
53880;DHT22;39791;53.184;5.486;2022-10-13T00:50:39;15.00;99.90
53880;DHT22;39791;53.184;5.486;2022-10-13T00:53:07;14.80;99.90
53880;DHT22;39791;53.184;5.486;2022-10-13T00:55:35;14.20;99.90
53880;DHT22;39791;53.184;5.486;2022-10-13T00:58:04;14.40;99.90
53880;DHT22;39791;53.184;5.486;2022-10-13T01:00:31;14.30;99.90
53880;DHT22;39791;53.184;5.486;2022-10-13T01:02:57;14.20;99.90
53880;DHT22;39791;53.184;5.486;2022-10-13T01:05:23;15.10;99.90
53880;DHT22;39791;53.184;5.486;2022-10-13T01:07:51;14.20;99.90
53880;DHT22;39791;53.184;5.486;2022-10-13T01:10:34;15.40;99.90
53880;DHT22;39791;53.184;5.486;2022-10-13T01:13:17;14.30;99.90
53880;DHT22;39791;53.184;5.486;2022-10-13T01:20:49;14.30;99.90
53880;DHT22;39791;53.184;5.486;2022-10-13T01:23:41;14.80;99.90
53880;DHT22;39791;53.184;5.486;2022-10-13T01:29:23;14.80;99.90
53880;DHT22;39791;53.184;5.486;2022-10-13T01:32:17;14.80;99.90
53880;DHT22;39791;53.184;5.486;2022-10-13T01:37:47;14.80;99.90
53880;DHT22;39791;53.184;5.486;2022-10-13T01:40:46;14.70;99.90
53880;DHT22;39791;53.184;5.486;2022-10-13T01:43:26;14.30;99.90
53880;DHT22;39791;53.184;5.486;2022-10-13T01:46:00;14.80;99.90
53880;DHT22;39791;53.184;5.486;2022-10-13T01:48:28;14.20;99.90
53880;DHT22;39791;53.184;5.486;2022-10-13T01:50:57;14.80;99.90
53880;DHT22;39791;53.184;5.486;2022-10-13T01:53:23;14.30;99.90
53880;DHT22;39791;53.184;5.486;2022-10-13T01:55:52;14.20;99.90
53880;DHT22;39791;53.184;5.486;2022-10-13T01:58:18;15.20;99.90
53880;DHT22;39791;53.184;5.486;2022-10-13T02:06:20;14.90;99.90
53880;DHT22;39791;53.184;5.486;2022-10-13T02:11:20;14.70;99.90
53880;DHT22;39791;53.184;5.486;2022-10-13T02:14:01;14.90;99.90
53880;DHT22;39791;53.184;5.486;2022-10-13T02:16:37;14.90;99.90
53880;DHT22;39791;53.184;5.486;2022-10-13T02:19:05;14.20;99.90
53880;DHT22;39791;53.184;5.486;2022-10-13T02:21:32;15.00;99.90
53880;DHT22;39791;53.184;5.486;2022-10-13T02:23:57;15.00;99.90
53880;DHT22;39791;53.184;5.486;2022-10-13T02:26:24;14.90;99.90
53880;DHT22;39791;53.184;5.486;2022-10-13T02:28:50;15.60;99.90
53880;DHT22;39791;53.184;5.486;2022-10-13T02:31:15;15.00;99.90
53880;DHT22;39791;53.184;5.486;2022-10-13T02:33:41;15.00;99.90
53880;DHT22;39791;53.184;5.486;2022-10-13T02:36:06;14.20;99.90
53880;DHT22;39791;53.184;5.486;2022-10-13T02:38:32;14.10;99.90
53880;DHT22;39791;53.184;5.486;2022-10-13T02:40:59;14.40;99.90
53880;DHT22;39791;53.184;5.486;2022-10-13T02:43:26;14.70;99.90
53880;DHT22;39791;53.184;5.486;2022-10-13T02:45:51;15.10;99.90
53880;DHT22;39791;53.184;5.486;2022-10-13T02:48:17;15.20;99.90
53880;DHT22;39791;53.184;5.486;2022-10-13T02:50:42;15.20;99.90
53880;DHT22;39791;53.184;5.486;2022-10-13T02:53:08;15.00;99.90
53880;DHT22;39791;53.184;5.486;2022-10-13T02:55:33;14.30;99.90
53880;DHT22;39791;53.184;5.486;2022-10-13T02:57:59;14.70;99.90
53880;DHT22;39791;53.184;5.486;2022-10-13T03:00:25;15.40;99.90
53880;DHT22;39791;53.184;5.486;2022-10-13T03:02:50;15.20;99.90
53880;DHT22;39791;53.184;5.486;2022-10-13T03:05:16;15.30;99.90
53880;DHT22;39791;53.184;5.486;2022-10-13T03:07:42;15.30;99.90
53880;DHT22;39791;53.184;5.486;2022-10-13T03:10:07;14.50;99.90
53880;DHT22;39791;53.184;5.486;2022-10-13T03:12:33;15.60;99.90
53880;DHT22;39791;53.184;5.486;2022-10-13T03:14:59;15.60;99.90
53880;DHT22;39791;53.184;5.486;2022-10-13T03:17:25;15.60;99.90
53880;DHT22;39791;53.184;5.486;2022-10-13T03:19:51;15.20;99.90
53880;DHT22;39791;53.184;5.486;2022-10-13T03:22:17;15.60;99.90
53880;DHT22;39791;53.184;5.486;2022-10-13T03:24:43;15.60;99.90
53880;DHT22;39791;53.184;5.486;2022-10-13T03:27:08;14.80;99.90
53880;DHT22;39791;53.184;5.486;2022-10-13T03:29:35;15.80;99.90
53880;DHT22;39791;53.184;5.486;2022-10-13T03:32:00;17.50;99.90
53880;DHT22;39791;53.184;5.486;2022-10-13T03:34:26;15.00;99.90
53880;DHT22;39791;53.184;5.486;2022-10-13T03:36:52;15.60;99.90
53880;DHT22;39791;53.184;5.486;2022-10-13T03:39:17;15.60;99.90
53880;DHT22;39791;53.184;5.486;2022-10-13T03:41:43;14.50;99.90
53880;DHT22;39791;53.184;5.486;2022-10-13T03:44:12;14.60;99.90
53880;DHT22;39791;53.184;5.486;2022-10-13T03:46:38;15.80;99.90
53880;DHT22;39791;53.184;5.486;2022-10-13T03:49:03;14.80;99.90
53880;DHT22;39791;53.184;5.486;2022-10-13T03:51:29;14.60;99.90
53880;DHT22;39791;53.184;5.486;2022-10-13T03:53:55;15.70;99.90
53880;DHT22;39791;53.184;5.486;2022-10-13T03:56:24;14.80;99.90
53880;DHT22;39791;53.184;5.486;2022-10-13T03:58:54;14.60;99.90
53880;DHT22;39791;53.184;5.486;2022-10-13T04:01:22;15.00;99.90
53880;DHT22;39791;53.184;5.486;2022-10-13T04:03:50;15.60;99.90
53880;DHT22;39791;53.184;5.486;2022-10-13T04:06:16;15.10;99.90
53880;DHT22;39791;53.184;5.486;2022-10-13T04:08:42;14.80;99.90
53880;DHT22;39791;53.184;5.486;2022-10-13T04:11:10;15.60;99.90
53880;DHT22;39791;53.184;5.486;2022-10-13T04:13:36;14.60;99.90
53880;DHT22;39791;53.184;5.486;2022-10-13T04:16:07;14.70;99.90
53880;DHT22;39791;53.184;5.486;2022-10-13T04:18:33;15.20;99.90
53880;DHT22;39791;53.184;5.486;2022-10-13T04:20:59;15.40;99.90
53880;DHT22;39791;53.184;5.486;2022-10-13T04:23:25;15.10;99.90
53880;DHT22;39791;53.184;5.486;2022-10-13T04:25:51;15.20;99.90
53880;DHT22;39791;53.184;5.486;2022-10-13T04:28:16;14.70;99.90
53880;DHT22;39791;53.184;5.486;2022-10-13T04:30:42;15.80;99.90
53880;DHT22;39791;53.184;5.486;2022-10-13T04:33:08;15.80;99.90
53880;DHT22;39791;53.184;5.486;2022-10-13T04:35:39;16.10;99.90
53880;DHT22;39791;53.184;5.486;2022-10-13T04:38:04;15.70;99.90
53880;DHT22;39791;53.184;5.486;2022-10-13T04:40:30;15.90;99.90
53880;DHT22;39791;53.184;5.486;2022-10-13T04:42:56;15.80;99.90
53880;DHT22;39791;53.184;5.486;2022-10-13T04:45:22;16.00;99.90
53880;DHT22;39791;53.184;5.486;2022-10-13T04:47:47;15.10;99.90
53880;DHT22;39791;53.184;5.486;2022-10-13T04:50:13;15.00;99.90
53880;DHT22;39791;53.184;5.486;2022-10-13T04:52:38;15.00;99.90
53880;DHT22;39791;53.184;5.486;2022-10-13T04:55:04;16.00;99.90
53880;DHT22;39791;53.184;5.486;2022-10-13T04:57:30;15.70;99.90
53880;DHT22;39791;53.184;5.486;2022-10-13T04:59:55;16.00;99.90
53880;DHT22;39791;53.184;5.486;2022-10-13T05:02:21;15.60;99.90
53880;DHT22;39791;53.184;5.486;2022-10-13T05:04:47;15.10;99.90
53880;DHT22;39791;53.184;5.486;2022-10-13T05:07:12;16.10;99.90
53880;DHT22;39791;53.184;5.486;2022-10-13T05:09:38;16.10;99.90
53880;DHT22;39791;53.184;5.486;2022-10-13T05:12:03;14.80;99.90
53880;DHT22;39791;53.184;5.486;2022-10-13T05:14:30;14.90;99.90
53880;DHT22;39791;53.184;5.486;2022-10-13T05:16:56;15.00;99.90
53880;DHT22;39791;53.184;5.486;2022-10-13T05:19:21;16.90;99.90
53880;DHT22;39791;53.184;5.486;2022-10-13T05:21:47;14.90;99.90
53880;DHT22;39791;53.184;5.486;2022-10-13T05:24:13;14.80;99.90
53880;DHT22;39791;53.184;5.486;2022-10-13T05:26:40;15.00;99.90
53880;DHT22;39791;53.184;5.486;2022-10-13T05:29:06;15.00;99.90
53880;DHT22;39791;53.184;5.486;2022-10-13T05:31:34;15.90;99.90
53880;DHT22;39791;53.184;5.486;2022-10-13T05:34:00;15.90;99.90
53880;DHT22;39791;53.184;5.486;2022-10-13T05:36:31;14.80;99.90
53880;DHT22;39791;53.184;5.486;2022-10-13T05:38:59;16.00;99.90
53880;DHT22;39791;53.184;5.486;2022-10-13T05:41:26;15.70;99.90
53880;DHT22;39791;53.184;5.486;2022-10-13T05:43:58;15.80;99.90
53880;DHT22;39791;53.184;5.486;2022-10-13T05:46:24;14.90;99.90
53880;DHT22;39791;53.184;5.486;2022-10-13T05:48:50;14.90;99.90
53880;DHT22;39791;53.184;5.486;2022-10-13T05:51:19;15.70;99.90
53880;DHT22;39791;53.184;5.486;2022-10-13T05:53:51;16.10;99.90
53880;DHT22;39791;53.184;5.486;2022-10-13T05:56:22;15.60;99.90
53880;DHT22;39791;53.184;5.486;2022-10-13T05:58:53;15.90;99.90
53880;DHT22;39791;53.184;5.486;2022-10-13T06:01:24;16.00;99.90
53880;DHT22;39791;53.184;5.486;2022-10-13T06:03:52;15.80;99.90
53880;DHT22;39791;53.184;5.486;2022-10-13T06:06:23;16.00;99.90
53880;DHT22;39791;53.184;5.486;2022-10-13T06:08:49;16.00;99.90
53880;DHT22;39791;53.184;5.486;2022-10-13T06:11:15;15.00;99.90
53880;DHT22;39791;53.184;5.486;2022-10-13T06:13:40;15.50;99.90
53880;DHT22;39791;53.184;5.486;2022-10-13T06:16:06;16.40;99.90
53880;DHT22;39791;53.184;5.486;2022-10-13T06:18:31;16.00;99.90
53880;DHT22;39791;53.184;5.486;2022-10-13T06:20:57;15.40;99.90
53880;DHT22;39791;53.184;5.486;2022-10-13T06:23:23;15.90;99.90
53880;DHT22;39791;53.184;5.486;2022-10-13T06:25:50;15.30;99.90
53880;DHT22;39791;53.184;5.486;2022-10-13T06:28:16;15.90;99.90
53880;DHT22;39791;53.184;5.486;2022-10-13T06:30:44;16.30;99.90
53880;DHT22;39791;53.184;5.486;2022-10-13T06:33:12;16.00;99.90
53880;DHT22;39791;53.184;5.486;2022-10-13T06:35:38;16.00;99.90
53880;DHT22;39791;53.184;5.486;2022-10-13T06:38:03;15.30;99.90
53880;DHT22;39791;53.184;5.486;2022-10-13T06:40:29;16.50;99.90
53880;DHT22;39791;53.184;5.486;2022-10-13T06:42:55;15.90;99.90
53880;DHT22;39791;53.184;5.486;2022-10-13T06:45:20;16.60;99.90
53880;DHT22;39791;53.184;5.486;2022-10-13T06:47:46;15.40;99.90
53880;DHT22;39791;53.184;5.486;2022-10-13T06:50:12;17.40;99.90
53880;DHT22;39791;53.184;5.486;2022-10-13T06:52:38;15.60;99.90
53880;DHT22;39791;53.184;5.486;2022-10-13T06:55:04;16.50;99.90
53880;DHT22;39791;53.184;5.486;2022-10-13T06:57:30;16.80;99.90
53880;DHT22;39791;53.184;5.486;2022-10-13T06:59:55;16.70;99.90
53880;DHT22;39791;53.184;5.486;2022-10-13T07:02:21;16.10;99.90
53880;DHT22;39791;53.184;5.486;2022-10-13T07:04:47;16.90;99.90
53880;DHT22;39791;53.184;5.486;2022-10-13T07:07:13;15.80;99.90
53880;DHT22;39791;53.184;5.486;2022-10-13T07:09:40;15.80;99.90
53880;DHT22;39791;53.184;5.486;2022-10-13T07:12:06;16.60;99.90
53880;DHT22;39791;53.184;5.486;2022-10-13T07:14:32;17.10;99.90
53880;DHT22;39791;53.184;5.486;2022-10-13T07:16:58;17.10;99.90
53880;DHT22;39791;53.184;5.486;2022-10-13T07:19:23;16.40;99.90
53880;DHT22;39791;53.184;5.486;2022-10-13T07:21:49;17.20;99.90
53880;DHT22;39791;53.184;5.486;2022-10-13T07:24:15;16.00;99.90
53880;DHT22;39791;53.184;5.486;2022-10-13T07:26:40;16.30;99.90
53880;DHT22;39791;53.184;5.486;2022-10-13T07:29:06;16.90;99.90
53880;DHT22;39791;53.184;5.486;2022-10-13T07:31:32;17.30;99.90
53880;DHT22;39791;53.184;5.486;2022-10-13T07:33:58;16.90;99.90
53880;DHT22;39791;53.184;5.486;2022-10-13T07:36:24;16.10;99.90
53880;DHT22;39791;53.184;5.486;2022-10-13T07:38:50;17.20;99.90
53880;DHT22;39791;53.184;5.486;2022-10-13T07:41:16;16.30;99.90
53880;DHT22;39791;53.184;5.486;2022-10-13T07:43:42;16.30;99.90
53880;DHT22;39791;53.184;5.486;2022-10-13T07:46:08;17.30;99.90
53880;DHT22;39791;53.184;5.486;2022-10-13T07:48:35;17.60;99.90
53880;DHT22;39791;53.184;5.486;2022-10-13T07:51:05;17.50;99.90
53880;DHT22;39791;53.184;5.486;2022-10-13T07:53:31;17.50;99.90
53880;DHT22;39791;53.184;5.486;2022-10-13T07:56:00;16.50;99.90
53880;DHT22;39791;53.184;5.486;2022-10-13T07:58:26;18.30;99.90
53880;DHT22;39791;53.184;5.486;2022-10-13T08:01:00;17.00;99.90
53880;DHT22;39791;53.184;5.486;2022-10-13T08:03:26;17.00;99.90
53880;DHT22;39791;53.184;5.486;2022-10-13T08:05:53;16.70;99.90
53880;DHT22;39791;53.184;5.486;2022-10-13T08:08:19;17.90;99.90
53880;DHT22;39791;53.184;5.486;2022-10-13T08:10:45;17.90;99.90
53880;DHT22;39791;53.184;5.486;2022-10-13T08:13:10;18.30;99.90
53880;DHT22;39791;53.184;5.486;2022-10-13T08:15:40;17.80;99.90
53880;DHT22;39791;53.184;5.486;2022-10-13T08:18:06;17.30;99.90
53880;DHT22;39791;53.184;5.486;2022-10-13T08:20:32;17.30;99.90
53880;DHT22;39791;53.184;5.486;2022-10-13T08:22:58;18.30;99.90
53880;DHT22;39791;53.184;5.486;2022-10-13T08:25:24;18.40;99.90
53880;DHT22;39791;53.184;5.486;2022-10-13T08:27:50;18.50;99.90
53880;DHT22;39791;53.184;5.486;2022-10-13T08:30:15;18.50;99.90
53880;DHT22;39791;53.184;5.486;2022-10-13T08:32:41;17.20;99.90
53880;DHT22;39791;53.184;5.486;2022-10-13T08:35:07;18.60;99.90
53880;DHT22;39791;53.184;5.486;2022-10-13T08:37:33;18.60;99.90
53880;DHT22;39791;53.184;5.486;2022-10-13T08:39:59;18.10;99.90
53880;DHT22;39791;53.184;5.486;2022-10-13T08:42:24;17.20;99.90
53880;DHT22;39791;53.184;5.486;2022-10-13T08:47:43;18.40;99.90
53880;DHT22;39791;53.184;5.486;2022-10-13T08:50:14;17.40;99.90
53880;DHT22;39791;53.184;5.486;2022-10-13T08:55:34;18.70;99.90
53880;DHT22;39791;53.184;5.486;2022-10-13T08:58:14;18.70;99.90
53880;DHT22;39791;53.184;5.486;2022-10-13T09:00:41;18.50;99.90
53880;DHT22;39791;53.184;5.486;2022-10-13T09:03:25;17.10;99.90
53880;DHT22;39791;53.184;5.486;2022-10-13T09:06:14;17.40;99.90
53880;DHT22;39791;53.184;5.486;2022-10-13T09:08:56;18.10;99.90
53880;DHT22;39791;53.184;5.486;2022-10-13T09:11:26;18.40;99.90
53880;DHT22;39791;53.184;5.486;2022-10-13T09:13:57;18.50;99.90
53880;DHT22;39791;53.184;5.486;2022-10-13T09:16:43;17.10;99.90
53880;DHT22;39791;53.184;5.486;2022-10-13T09:19:33;17.60;99.90
53880;DHT22;39791;53.184;5.486;2022-10-13T09:24:44;17.30;99.90
53880;DHT22;39791;53.184;5.486;2022-10-13T09:27:15;17.60;99.90
53880;DHT22;39791;53.184;5.486;2022-10-13T09:29:42;18.40;99.90
53880;DHT22;39791;53.184;5.486;2022-10-13T09:32:18;17.40;99.90
53880;DHT22;39791;53.184;5.486;2022-10-13T09:34:45;18.90;99.90
53880;DHT22;39791;53.184;5.486;2022-10-13T09:37:22;19.00;99.90
53880;DHT22;39791;53.184;5.486;2022-10-13T09:40:12;19.10;99.90
53880;DHT22;39791;53.184;5.486;2022-10-13T09:42:38;17.40;99.90
53880;DHT22;39791;53.184;5.486;2022-10-13T09:45:19;18.10;99.90
53880;DHT22;39791;53.184;5.486;2022-10-13T09:48:06;19.00;99.90
53880;DHT22;39791;53.184;5.486;2022-10-13T09:50:33;19.20;99.90
53880;DHT22;39791;53.184;5.486;2022-10-13T09:56:48;18.80;99.90
53880;DHT22;39791;53.184;5.486;2022-10-13T09:59:21;17.90;99.90
53880;DHT22;39791;53.184;5.486;2022-10-13T10:01:49;19.10;99.90
53880;DHT22;39791;53.184;5.486;2022-10-13T10:04:21;18.60;99.90
53880;DHT22;39791;53.184;5.486;2022-10-13T10:06:48;18.10;99.90
53880;DHT22;39791;53.184;5.486;2022-10-13T10:09:33;18.00;99.90
53880;DHT22;39791;53.184;5.486;2022-10-13T10:12:02;18.90;99.90
53880;DHT22;39791;53.184;5.486;2022-10-13T10:14:37;18.80;99.90
53880;DHT22;39791;53.184;5.486;2022-10-13T10:17:30;19.10;99.90
53880;DHT22;39791;53.184;5.486;2022-10-13T10:22:45;17.90;99.90
53880;DHT22;39791;53.184;5.486;2022-10-13T10:28:04;18.30;99.90
53880;DHT22;39791;53.184;5.486;2022-10-13T10:30:42;17.60;99.90
53880;DHT22;39791;53.184;5.486;2022-10-13T10:33:11;19.10;99.90
53880;DHT22;39791;53.184;5.486;2022-10-13T10:38:37;18.50;99.90
53880;DHT22;39791;53.184;5.486;2022-10-13T10:44:01;18.80;99.90
53880;DHT22;39791;53.184;5.486;2022-10-13T10:46:32;19.40;99.90
53880;DHT22;39791;53.184;5.486;2022-10-13T10:49:14;19.50;99.90
53880;DHT22;39791;53.184;5.486;2022-10-13T10:51:41;19.50;99.90
53880;DHT22;39791;53.184;5.486;2022-10-13T10:56:57;19.50;99.90
53880;DHT22;39791;53.184;5.486;2022-10-13T11:04:40;19.50;99.90
53880;DHT22;39791;53.184;5.486;2022-10-13T11:15:08;19.30;99.90
53880;DHT22;39791;53.184;5.486;2022-10-13T11:17:43;18.30;99.90
53880;DHT22;39791;53.184;5.486;2022-10-13T11:25:39;18.40;99.90
53880;DHT22;39791;53.184;5.486;2022-10-13T11:30:56;18.60;99.90
53880;DHT22;39791;53.184;5.486;2022-10-13T11:44:40;19.70;99.90
53880;DHT22;39791;53.184;5.486;2022-10-13T11:50:35;19.00;99.90
53880;DHT22;39791;53.184;5.486;2022-10-13T11:53:32;18.90;99.90
53880;DHT22;39791;53.184;5.486;2022-10-13T11:55:59;18.70;99.90
53880;DHT22;39791;53.184;5.486;2022-10-13T11:58:32;18.90;99.90
53880;DHT22;39791;53.184;5.486;2022-10-13T12:03:31;18.80;99.90
53880;DHT22;39791;53.184;5.486;2022-10-13T12:06:02;18.70;99.90
53880;DHT22;39791;53.184;5.486;2022-10-13T12:08:32;18.80;99.90
53880;DHT22;39791;53.184;5.486;2022-10-13T12:10:58;19.50;99.90
53880;DHT22;39791;53.184;5.486;2022-10-13T12:13:29;19.80;99.90
53880;DHT22;39791;53.184;5.486;2022-10-13T12:16:03;19.90;99.90
53880;DHT22;39791;53.184;5.486;2022-10-13T12:18:35;19.40;99.90
53880;DHT22;39791;53.184;5.486;2022-10-13T12:21:14;18.90;99.90
53880;DHT22;39791;53.184;5.486;2022-10-13T12:23:42;19.50;99.90
53880;DHT22;39791;53.184;5.486;2022-10-13T12:26:16;20.20;99.90
53880;DHT22;39791;53.184;5.486;2022-10-13T12:28:56;19.20;99.90
53880;DHT22;39791;53.184;5.486;2022-10-13T12:31:24;19.30;99.90
53880;DHT22;39791;53.184;5.486;2022-10-13T12:33:56;19.70;99.90
53880;DHT22;39791;53.184;5.486;2022-10-13T12:36:31;19.70;99.90
53880;DHT22;39791;53.184;5.486;2022-10-13T12:39:05;19.80;99.90
53880;DHT22;39791;53.184;5.486;2022-10-13T12:41:34;19.80;99.90
53880;DHT22;39791;53.184;5.486;2022-10-13T12:44:01;19.20;99.90
53880;DHT22;39791;53.184;5.486;2022-10-13T12:46:43;19.80;99.90
53880;DHT22;39791;53.184;5.486;2022-10-13T12:51:41;19.60;99.90
53880;DHT22;39791;53.184;5.486;2022-10-13T12:54:14;19.70;99.90
53880;DHT22;39791;53.184;5.486;2022-10-13T12:56:42;19.30;99.90
53880;DHT22;39791;53.184;5.486;2022-10-13T12:59:17;19.60;99.90
53880;DHT22;39791;53.184;5.486;2022-10-13T13:01:44;19.80;99.90
53880;DHT22;39791;53.184;5.486;2022-10-13T13:07:21;19.80;99.90
53880;DHT22;39791;53.184;5.486;2022-10-13T13:10:13;19.60;99.90
53880;DHT22;39791;53.184;5.486;2022-10-13T13:12:40;19.40;99.90
53880;DHT22;39791;53.184;5.486;2022-10-13T13:17:53;19.50;99.90
53880;DHT22;39791;53.184;5.486;2022-10-13T13:20:25;19.90;99.90
53880;DHT22;39791;53.184;5.486;2022-10-13T13:22:52;19.60;99.90
53880;DHT22;39791;53.184;5.486;2022-10-13T13:25:17;19.60;99.90
53880;DHT22;39791;53.184;5.486;2022-10-13T13:27:43;19.70;99.90
53880;DHT22;39791;53.184;5.486;2022-10-13T13:30:14;19.40;99.90
53880;DHT22;39791;53.184;5.486;2022-10-13T13:32:40;19.60;99.90
53880;DHT22;39791;53.184;5.486;2022-10-13T13:35:06;19.30;99.90
53880;DHT22;39791;53.184;5.486;2022-10-13T13:37:40;19.10;99.90
53880;DHT22;39791;53.184;5.486;2022-10-13T13:40:14;19.20;99.90
53880;DHT22;39791;53.184;5.486;2022-10-13T13:42:40;19.40;99.90
53880;DHT22;39791;53.184;5.486;2022-10-13T13:45:06;19.60;99.90
53880;DHT22;39791;53.184;5.486;2022-10-13T13:47:32;19.50;99.90
53880;DHT22;39791;53.184;5.486;2022-10-13T13:49:57;19.50;99.90
53880;DHT22;39791;53.184;5.486;2022-10-13T13:52:24;19.20;99.90
53880;DHT22;39791;53.184;5.486;2022-10-13T13:54:50;19.30;99.90
53880;DHT22;39791;53.184;5.486;2022-10-13T13:57:16;19.20;99.90
53880;DHT22;39791;53.184;5.486;2022-10-13T13:59:42;19.20;99.90
53880;DHT22;39791;53.184;5.486;2022-10-13T14:02:14;19.40;99.90
53880;DHT22;39791;53.184;5.486;2022-10-13T14:04:40;19.60;99.90
53880;DHT22;39791;53.184;5.486;2022-10-13T14:07:05;19.50;99.90
53880;DHT22;39791;53.184;5.486;2022-10-13T14:09:31;19.20;99.90
53880;DHT22;39791;53.184;5.486;2022-10-13T14:11:57;19.50;99.90
53880;DHT22;39791;53.184;5.486;2022-10-13T14:14:23;19.20;99.90
53880;DHT22;39791;53.184;5.486;2022-10-13T14:16:48;19.30;99.90
53880;DHT22;39791;53.184;5.486;2022-10-13T14:19:14;19.50;99.90
53880;DHT22;39791;53.184;5.486;2022-10-13T14:21:39;19.30;99.90
53880;DHT22;39791;53.184;5.486;2022-10-13T14:24:05;19.00;99.90
53880;DHT22;39791;53.184;5.486;2022-10-13T14:26:31;19.10;99.90
53880;DHT22;39791;53.184;5.486;2022-10-13T14:28:57;19.10;99.90
53880;DHT22;39791;53.184;5.486;2022-10-13T14:31:22;19.00;99.90
53880;DHT22;39791;53.184;5.486;2022-10-13T14:33:48;19.30;99.90
53880;DHT22;39791;53.184;5.486;2022-10-13T14:36:14;19.20;99.90
53880;DHT22;39791;53.184;5.486;2022-10-13T14:38:39;19.40;99.90
53880;DHT22;39791;53.184;5.486;2022-10-13T14:41:05;19.30;99.90
53880;DHT22;39791;53.184;5.486;2022-10-13T14:43:32;19.40;99.90
53880;DHT22;39791;53.184;5.486;2022-10-13T14:46:05;18.90;99.90
53880;DHT22;39791;53.184;5.486;2022-10-13T14:48:31;18.90;99.90
53880;DHT22;39791;53.184;5.486;2022-10-13T14:50:57;18.90;99.90
53880;DHT22;39791;53.184;5.486;2022-10-13T14:53:23;18.80;99.90
53880;DHT22;39791;53.184;5.486;2022-10-13T14:55:51;19.30;99.90
53880;DHT22;39791;53.184;5.486;2022-10-13T14:58:17;19.20;99.90
53880;DHT22;39791;53.184;5.486;2022-10-13T15:00:42;19.00;99.90
53880;DHT22;39791;53.184;5.486;2022-10-13T15:03:08;19.00;99.90
53880;DHT22;39791;53.184;5.486;2022-10-13T15:05:34;19.30;99.90
53880;DHT22;39791;53.184;5.486;2022-10-13T15:07:59;19.00;99.90
53880;DHT22;39791;53.184;5.486;2022-10-13T15:10:25;19.30;99.90
53880;DHT22;39791;53.184;5.486;2022-10-13T15:12:50;19.30;99.90
53880;DHT22;39791;53.184;5.486;2022-10-13T15:15:16;19.30;99.90
53880;DHT22;39791;53.184;5.486;2022-10-13T15:17:42;19.30;99.90
53880;DHT22;39791;53.184;5.486;2022-10-13T15:20:08;19.20;99.90
53880;DHT22;39791;53.184;5.486;2022-10-13T15:22:33;19.20;99.90
53880;DHT22;39791;53.184;5.486;2022-10-13T15:24:59;19.50;99.90
53880;DHT22;39791;53.184;5.486;2022-10-13T15:27:25;19.00;99.90
53880;DHT22;39791;53.184;5.486;2022-10-13T15:29:50;18.70;99.90
53880;DHT22;39791;53.184;5.486;2022-10-13T15:32:17;18.90;99.90
53880;DHT22;39791;53.184;5.486;2022-10-13T15:34:43;18.70;99.90
53880;DHT22;39791;53.184;5.486;2022-10-13T15:37:10;18.90;99.90
53880;DHT22;39791;53.184;5.486;2022-10-13T15:39:35;18.80;99.90
53880;DHT22;39791;53.184;5.486;2022-10-13T15:42:02;18.60;99.90
53880;DHT22;39791;53.184;5.486;2022-10-13T15:44:28;18.90;99.90
53880;DHT22;39791;53.184;5.486;2022-10-13T15:46:55;18.60;99.90
53880;DHT22;39791;53.184;5.486;2022-10-13T15:49:22;18.60;99.90
53880;DHT22;39791;53.184;5.486;2022-10-13T15:51:49;18.60;99.90
53880;DHT22;39791;53.184;5.486;2022-10-13T15:54:15;19.00;99.90
53880;DHT22;39791;53.184;5.486;2022-10-13T15:56:41;18.70;99.90
53880;DHT22;39791;53.184;5.486;2022-10-13T15:59:07;18.80;99.90
53880;DHT22;39791;53.184;5.486;2022-10-13T16:01:33;18.70;99.90
53880;DHT22;39791;53.184;5.486;2022-10-13T16:03:58;18.60;99.90
53880;DHT22;39791;53.184;5.486;2022-10-13T16:06:24;18.40;99.90
53880;DHT22;39791;53.184;5.486;2022-10-13T16:08:51;18.30;99.90
53880;DHT22;39791;53.184;5.486;2022-10-13T16:11:18;18.70;99.90
53880;DHT22;39791;53.184;5.486;2022-10-13T16:13:49;18.50;99.90
53880;DHT22;39791;53.184;5.486;2022-10-13T16:16:16;18.50;99.90
53880;DHT22;39791;53.184;5.486;2022-10-13T16:18:42;18.50;99.90
53880;DHT22;39791;53.184;5.486;2022-10-13T16:21:20;18.20;99.90
53880;DHT22;39791;53.184;5.486;2022-10-13T16:23:47;18.00;99.90
53880;DHT22;39791;53.184;5.486;2022-10-13T16:26:13;18.00;99.90
53880;DHT22;39791;53.184;5.486;2022-10-13T16:28:39;17.30;99.90
53880;DHT22;39791;53.184;5.486;2022-10-13T16:31:07;17.30;99.90
53880;DHT22;39791;53.184;5.486;2022-10-13T16:33:34;17.20;99.90
53880;DHT22;39791;53.184;5.486;2022-10-13T16:36:05;17.60;99.90
53880;DHT22;39791;53.184;5.486;2022-10-13T16:38:31;17.00;99.90
53880;DHT22;39791;53.184;5.486;2022-10-13T16:40:57;17.20;99.90
53880;DHT22;39791;53.184;5.486;2022-10-13T16:43:23;16.80;99.90
53880;DHT22;39791;53.184;5.486;2022-10-13T16:45:56;17.20;99.90
53880;DHT22;39791;53.184;5.486;2022-10-13T16:48:22;16.70;99.90
53880;DHT22;39791;53.184;5.486;2022-10-13T16:50:47;17.20;99.90
53880;DHT22;39791;53.184;5.486;2022-10-13T16:53:13;16.80;99.90
53880;DHT22;39791;53.184;5.486;2022-10-13T16:55:39;17.20;99.90
53880;DHT22;39791;53.184;5.486;2022-10-13T16:58:05;17.00;99.90
53880;DHT22;39791;53.184;5.486;2022-10-13T17:00:30;17.10;99.90
53880;DHT22;39791;53.184;5.486;2022-10-13T17:02:56;16.90;99.90
53880;DHT22;39791;53.184;5.486;2022-10-13T17:05:21;16.40;99.90
53880;DHT22;39791;53.184;5.486;2022-10-13T17:07:47;17.00;99.90
53880;DHT22;39791;53.184;5.486;2022-10-13T17:10:13;16.70;99.90
53880;DHT22;39791;53.184;5.486;2022-10-13T17:12:38;16.30;99.90